createdAt,value
2017-11-19T00:00:03.960Z,3.60
2017-11-19T00:02:32.064Z,3.60
2017-11-19T00:05:00.145Z,3.60
2017-11-19T00:07:28.229Z,3.60
2017-11-19T00:09:56.330Z,3.60
2017-11-19T00:12:24.416Z,3.60
2017-11-19T00:14:52.490Z,3.60
2017-11-19T00:17:20.588Z,3.60
2017-11-19T00:19:49.436Z,3.60
2017-11-19T00:22:17.537Z,3.60
2017-11-19T00:24:45.714Z,3.60
2017-11-19T00:27:13.808Z,3.60
2017-11-19T00:29:42.048Z,3.60
2017-11-19T00:32:10.901Z,3.60
2017-11-19T00:34:38.993Z,3.50
2017-11-19T00:37:07.264Z,3.50
2017-11-19T00:39:35.428Z,3.50
2017-11-19T00:42:03.620Z,3.50
2017-11-19T00:44:31.695Z,3.50
2017-11-19T00:47:00.547Z,3.40
2017-11-19T00:49:28.644Z,3.40
2017-11-19T00:51:56.751Z,3.40
2017-11-19T00:54:24.836Z,3.30
2017-11-19T00:56:52.916Z,3.30
2017-11-19T00:59:21.016Z,3.20
2017-11-19T01:01:49.105Z,2.90
2017-11-19T01:04:17.192Z,2.80
2017-11-19T01:06:46.039Z,2.60
2017-11-19T01:09:14.129Z,2.60
2017-11-19T01:11:42.306Z,2.40
2017-11-19T01:14:10.389Z,2.40
2017-11-19T01:16:39.258Z,2.30
2017-11-19T01:19:07.344Z,2.20
2017-11-19T01:21:36.199Z,2.10
2017-11-19T01:24:04.289Z,2.10
2017-11-19T01:26:32.380Z,2.10
2017-11-19T01:29:01.229Z,1.70
2017-11-19T01:31:29.320Z,1.70
2017-11-19T01:33:57.400Z,1.80
2017-11-19T01:36:40.406Z,1.60
2017-11-19T01:39:08.489Z,1.60
2017-11-19T01:41:37.346Z,1.60
2017-11-19T01:44:05.433Z,1.60
2017-11-19T01:46:33.522Z,1.70
2017-11-19T01:49:01.605Z,1.70
2017-11-19T01:51:30.462Z,1.70
2017-11-19T01:53:58.549Z,1.70
2017-11-19T01:56:26.625Z,1.80
2017-11-19T01:58:55.485Z,1.70
2017-11-19T02:01:23.573Z,1.70
2017-11-19T02:03:51.650Z,1.70
2017-11-19T02:06:20.496Z,1.80
2017-11-19T02:08:48.583Z,1.80
2017-11-19T02:11:16.669Z,1.80
2017-11-19T02:13:44.758Z,1.80
2017-11-19T02:16:13.609Z,1.70
2017-11-19T02:18:41.701Z,1.70
2017-11-19T02:21:09.785Z,1.80
2017-11-19T02:23:38.637Z,1.80
2017-11-19T02:26:06.715Z,1.80
2017-11-19T02:28:34.804Z,1.80
2017-11-19T02:31:02.886Z,1.80
2017-11-19T02:33:31.747Z,1.80
2017-11-19T02:35:59.825Z,1.80
2017-11-19T02:38:27.913Z,1.80
2017-11-19T02:40:56.772Z,1.90
2017-11-19T02:43:24.868Z,1.80
2017-11-19T02:45:53.724Z,1.90
2017-11-19T02:48:21.813Z,1.90
2017-11-19T02:50:49.910Z,1.90
2017-11-19T02:53:17.995Z,2.00
2017-11-19T02:55:46.084Z,1.90
2017-11-19T02:58:14.170Z,1.90
2017-11-19T03:00:42.366Z,1.90
2017-11-19T03:03:10.452Z,2.00
2017-11-19T03:05:39.313Z,2.00
2017-11-19T03:08:07.393Z,2.00
2017-11-19T03:10:35.474Z,2.00
2017-11-19T03:13:03.569Z,2.00
2017-11-19T03:15:31.679Z,2.00
2017-11-19T03:17:59.829Z,2.00
2017-11-19T03:20:27.970Z,2.00
2017-11-19T03:22:56.051Z,2.00
2017-11-19T03:25:24.134Z,2.00
2017-11-19T03:27:52.208Z,2.00
2017-11-19T03:30:20.284Z,2.00
2017-11-19T03:32:48.407Z,2.00
2017-11-19T03:35:16.488Z,2.00
2017-11-19T03:37:45.338Z,2.00
2017-11-19T03:40:13.410Z,2.00
2017-11-19T03:42:41.499Z,2.10
2017-11-19T03:45:09.674Z,2.00
2017-11-19T03:47:37.757Z,2.10
2017-11-19T03:50:06.612Z,2.10
2017-11-19T03:52:34.705Z,2.10
2017-11-19T03:55:02.787Z,2.00
2017-11-19T03:57:31.626Z,2.10
2017-11-19T03:59:59.709Z,2.10
2017-11-19T04:02:27.791Z,2.10
2017-11-19T04:04:55.877Z,2.10
2017-11-19T04:07:23.948Z,2.10
2017-11-19T04:09:52.029Z,2.10
2017-11-19T04:12:20.879Z,2.10
2017-11-19T04:14:48.950Z,2.10
2017-11-19T04:17:17.029Z,2.10
2017-11-19T04:19:45.103Z,2.10
2017-11-19T04:22:13.177Z,2.10
2017-11-19T04:24:41.256Z,2.00
2017-11-19T04:27:09.328Z,2.00
2017-11-19T04:29:37.408Z,2.00
2017-11-19T04:32:06.248Z,2.00
2017-11-19T04:34:34.345Z,2.00
2017-11-19T04:37:02.428Z,2.00
2017-11-19T04:39:30.494Z,2.00
2017-11-19T04:41:58.577Z,2.00
2017-11-19T04:44:27.419Z,1.90
2017-11-19T04:46:55.492Z,1.90
2017-11-19T04:49:23.571Z,1.90
2017-11-19T04:51:51.648Z,1.80
2017-11-19T04:54:19.716Z,1.90
2017-11-19T04:56:47.798Z,1.80
2017-11-19T04:59:15.877Z,1.90
2017-11-19T05:01:43.956Z,1.80
2017-11-19T05:04:12.788Z,1.80
2017-11-19T05:06:40.869Z,1.80
2017-11-19T05:09:08.940Z,1.80
2017-11-19T05:11:37.041Z,1.90
2017-11-19T05:14:05.112Z,1.90
2017-11-19T05:16:33.186Z,1.90
2017-11-19T05:19:01.261Z,1.90
2017-11-19T05:21:30.113Z,1.80
2017-11-19T05:23:58.183Z,1.80
2017-11-19T05:26:26.353Z,1.80
2017-11-19T05:28:54.437Z,1.80
2017-11-19T05:31:22.524Z,1.80
2017-11-19T05:33:50.599Z,1.90
2017-11-19T05:36:19.453Z,1.90
2017-11-19T05:38:47.648Z,1.90
2017-11-19T05:41:15.925Z,1.90
2017-11-19T05:43:45.516Z,1.90
2017-11-19T05:46:13.592Z,1.90
2017-11-19T05:48:41.669Z,1.90
2017-11-19T05:51:09.843Z,1.90
2017-11-19T05:53:39.417Z,1.90
2017-11-19T05:56:07.505Z,1.90
2017-11-19T05:58:35.580Z,1.80
2017-11-19T06:01:03.656Z,1.90
2017-11-19T06:03:31.740Z,1.90
2017-11-19T06:06:00.590Z,2.00
2017-11-19T06:08:28.721Z,2.00
2017-11-19T06:10:56.808Z,2.00
2017-11-19T06:13:24.936Z,2.00
2017-11-19T06:15:53.004Z,1.90
2017-11-19T06:18:21.862Z,1.90
2017-11-19T06:20:50.161Z,1.90
2017-11-19T06:23:18.437Z,1.90
2017-11-19T06:25:46.505Z,1.90
2017-11-19T06:28:14.585Z,2.00
2017-11-19T06:30:42.656Z,2.00
2017-11-19T06:33:10.790Z,2.00
2017-11-19T06:35:38.860Z,2.00
2017-11-19T06:38:07.166Z,2.00
2017-11-19T06:40:35.245Z,2.10
2017-11-19T06:43:03.352Z,2.00
2017-11-19T06:45:31.429Z,2.10
2017-11-19T06:47:59.505Z,2.00
2017-11-19T06:50:27.604Z,2.00
2017-11-19T06:52:55.692Z,2.00
2017-11-19T06:55:23.837Z,2.00
2017-11-19T06:57:51.916Z,1.90
2017-11-19T07:00:19.992Z,1.90
2017-11-19T07:02:48.067Z,1.90
2017-11-19T07:05:16.145Z,2.00
2017-11-19T07:07:44.223Z,2.00
2017-11-19T07:10:13.069Z,1.90
2017-11-19T07:12:41.140Z,1.90
2017-11-19T07:15:09.212Z,1.90
2017-11-19T07:17:37.288Z,2.00
2017-11-19T07:20:05.377Z,1.90
2017-11-19T07:22:33.445Z,1.90
2017-11-19T07:25:01.525Z,1.90
2017-11-19T07:27:29.606Z,1.90
2017-11-19T07:29:58.557Z,1.90
2017-11-19T07:32:26.641Z,1.90
2017-11-19T07:34:54.717Z,2.00
2017-11-19T07:37:22.818Z,2.00
2017-11-19T07:39:51.659Z,2.00
2017-11-19T07:42:19.729Z,2.00
2017-11-19T07:44:47.815Z,1.90
2017-11-19T07:47:15.902Z,2.00
2017-11-19T07:49:43.977Z,2.00
2017-11-19T07:52:12.825Z,2.10
2017-11-19T07:54:40.888Z,2.00
2017-11-19T07:57:08.982Z,2.10
2017-11-19T07:59:37.073Z,2.20
2017-11-19T08:02:05.921Z,2.10
2017-11-19T08:04:33.988Z,2.10
2017-11-19T08:07:02.079Z,2.20
2017-11-19T08:09:31.674Z,2.20
2017-11-19T08:11:59.756Z,2.20
2017-11-19T08:14:27.841Z,2.40
2017-11-19T08:16:56.725Z,2.40
2017-11-19T08:19:24.905Z,2.40
2017-11-19T08:21:52.981Z,2.50
2017-11-19T08:24:21.829Z,2.50
2017-11-19T08:26:49.897Z,2.50
2017-11-19T08:29:17.988Z,2.80
2017-11-19T08:31:46.074Z,4.40
2017-11-19T08:34:14.971Z,4.40
2017-11-19T08:36:43.050Z,4.40
2017-11-19T08:39:11.178Z,4.40
2017-11-19T08:41:39.256Z,4.40
2017-11-19T08:44:07.410Z,3.70
2017-11-19T08:46:35.485Z,3.40
2017-11-19T08:49:03.588Z,3.50
2017-11-19T08:51:32.447Z,3.40
2017-11-19T08:54:00.530Z,3.30
2017-11-19T08:56:28.620Z,3.50
2017-11-19T08:58:57.473Z,4.60
2017-11-19T09:01:25.553Z,4.60
2017-11-19T09:03:53.634Z,6.70
2017-11-19T09:06:21.705Z,5.30
2017-11-19T09:08:49.791Z,4.10
2017-11-19T09:11:17.875Z,3.60
2017-11-19T09:13:46.705Z,3.50
2017-11-19T09:16:14.791Z,3.40
2017-11-19T09:18:42.858Z,3.30
2017-11-19T09:21:10.948Z,3.50
2017-11-19T09:23:39.025Z,3.90
2017-11-19T09:26:07.095Z,4.00
2017-11-19T09:28:35.940Z,4.70
2017-11-19T09:31:04.036Z,4.70
2017-11-19T09:33:32.114Z,4.20
2017-11-19T09:36:00.191Z,4.50
2017-11-19T09:38:28.289Z,3.90
2017-11-19T09:40:57.126Z,5.10
2017-11-19T09:43:25.205Z,5.20
2017-11-19T09:45:53.285Z,4.80
2017-11-19T09:48:21.361Z,5.40
2017-11-19T09:50:49.437Z,5.30
2017-11-19T09:53:17.505Z,5.50
2017-11-19T09:55:46.360Z,6.20
2017-11-19T09:58:14.448Z,6.20
2017-11-19T10:00:42.526Z,8.50
2017-11-19T10:03:10.608Z,9.20
2017-11-19T10:05:39.450Z,8.50
2017-11-19T10:08:07.523Z,8.50
2017-11-19T10:10:35.588Z,9.10
2017-11-19T10:13:03.669Z,8.80
2017-11-19T10:15:31.745Z,8.10
2017-11-19T10:17:59.816Z,10.10
2017-11-19T10:20:27.910Z,10.50
2017-11-19T10:22:55.976Z,7.60
2017-11-19T10:25:24.054Z,5.90
2017-11-19T10:27:52.913Z,5.60
2017-11-19T10:30:20.973Z,5.60
2017-11-19T10:32:49.047Z,6.20
2017-11-19T10:35:17.125Z,6.80
2017-11-19T10:37:45.201Z,5.90
2017-11-19T10:40:13.304Z,5.90
2017-11-19T10:42:42.150Z,6.10
2017-11-19T10:45:10.220Z,6.10
2017-11-19T10:47:38.325Z,5.70
2017-11-19T10:50:06.394Z,5.10
2017-11-19T10:52:35.237Z,5.90
2017-11-19T10:55:03.307Z,5.90
2017-11-19T10:57:31.397Z,6.80
2017-11-19T10:59:59.512Z,7.20
2017-11-19T11:02:27.584Z,7.10
2017-11-19T11:04:55.660Z,7.00
2017-11-19T11:07:23.736Z,7.60
2017-11-19T11:09:51.809Z,7.10
2017-11-19T11:12:19.905Z,6.50
2017-11-19T11:14:47.973Z,6.30
2017-11-19T11:17:16.049Z,6.10
2017-11-19T11:19:44.128Z,5.80
2017-11-19T11:22:12.204Z,6.20
2017-11-19T11:24:40.296Z,5.60
2017-11-19T11:27:09.138Z,4.90
2017-11-19T11:29:37.224Z,4.90
2017-11-19T11:32:05.302Z,5.00
2017-11-19T11:34:33.384Z,5.20
2017-11-19T11:37:01.465Z,4.50
2017-11-19T11:39:30.313Z,4.30
2017-11-19T11:41:58.390Z,4.20
2017-11-19T11:44:26.464Z,4.30
2017-11-19T11:46:54.528Z,4.60
2017-11-19T11:49:22.605Z,4.60
2017-11-19T11:51:50.684Z,4.50
2017-11-19T11:54:18.755Z,4.40
2017-11-19T11:56:46.850Z,4.30
2017-11-19T11:59:15.686Z,4.30
2017-11-19T12:01:43.771Z,4.30
2017-11-19T12:04:11.841Z,4.40
2017-11-19T12:06:39.923Z,4.40
2017-11-19T12:09:07.989Z,4.50
2017-11-19T12:11:36.074Z,4.30
2017-11-19T12:14:04.138Z,4.40
2017-11-19T12:16:32.223Z,4.50
2017-11-19T12:19:00.304Z,4.40
2017-11-19T12:21:28.380Z,4.40
2017-11-19T12:23:56.501Z,4.50
2017-11-19T12:26:24.696Z,4.60
2017-11-19T12:28:52.966Z,4.60
2017-11-19T12:31:21.124Z,4.60
2017-11-19T12:33:49.304Z,4.70
2017-11-19T12:36:17.388Z,4.70
2017-11-19T12:38:45.465Z,4.60
2017-11-19T12:41:14.301Z,4.60
2017-11-19T12:43:42.408Z,4.60
2017-11-19T12:46:10.477Z,4.70
2017-11-19T12:48:40.068Z,4.60
2017-11-19T12:51:08.157Z,4.60
2017-11-19T12:53:36.328Z,4.60
2017-11-19T12:56:04.405Z,4.60
2017-11-19T12:58:32.482Z,4.70
2017-11-19T13:01:00.549Z,4.60
2017-11-19T13:03:28.712Z,4.70
2017-11-19T13:05:56.895Z,4.60
2017-11-19T13:08:24.965Z,4.70
2017-11-19T13:10:53.057Z,4.60
2017-11-19T13:13:21.229Z,4.60
2017-11-19T13:15:49.365Z,4.70
2017-11-19T13:18:18.953Z,4.80
2017-11-19T13:20:47.082Z,4.80
2017-11-19T13:23:15.157Z,4.90
2017-11-19T13:25:43.253Z,4.90
2017-11-19T13:28:11.364Z,4.80
2017-11-19T13:30:40.248Z,4.60
2017-11-19T13:33:08.389Z,4.60
2017-11-19T13:35:36.495Z,4.50
2017-11-19T13:38:04.536Z,4.60
2017-11-19T13:40:32.728Z,4.60
2017-11-19T13:43:00.801Z,4.50
2017-11-19T13:45:28.873Z,4.50
2017-11-19T13:47:56.932Z,4.50
2017-11-19T13:50:25.008Z,4.50
2017-11-19T13:52:53.073Z,4.60
2017-11-19T13:55:21.157Z,4.50
2017-11-19T13:57:49.234Z,4.60
2017-11-19T14:00:17.304Z,4.60
2017-11-19T14:02:46.144Z,4.60
2017-11-19T14:05:14.228Z,4.60
2017-11-19T14:07:42.296Z,4.60
2017-11-19T14:10:10.377Z,4.30
2017-11-19T14:12:38.524Z,4.30
2017-11-19T14:15:06.613Z,4.20
2017-11-19T14:17:34.688Z,4.20
2017-11-19T14:20:02.774Z,4.20
2017-11-19T14:22:30.849Z,4.20
2017-11-19T14:24:58.924Z,4.20
2017-11-19T14:27:27.898Z,4.40
2017-11-19T14:29:55.977Z,4.40
2017-11-19T14:32:24.052Z,4.50
2017-11-19T14:34:52.129Z,4.50
2017-11-19T14:37:20.967Z,4.50
2017-11-19T14:39:49.062Z,4.50
2017-11-19T14:42:17.169Z,4.50
2017-11-19T14:44:46.029Z,4.50
2017-11-19T14:47:14.100Z,4.40
2017-11-19T14:49:42.178Z,4.40
2017-11-19T14:52:10.257Z,4.40
2017-11-19T14:54:39.116Z,4.30
2017-11-19T14:57:07.186Z,4.30
2017-11-19T14:59:35.256Z,4.30
2017-11-19T15:02:03.339Z,4.30
2017-11-19T15:04:31.418Z,4.30
2017-11-19T15:06:59.498Z,4.30
2017-11-19T15:09:28.335Z,4.30
2017-11-19T15:11:56.416Z,4.20
2017-11-19T15:14:24.497Z,4.30
2017-11-19T15:16:52.582Z,4.20
2017-11-19T15:19:20.661Z,4.20
2017-11-19T15:21:48.727Z,4.10
2017-11-19T15:24:17.588Z,4.20
2017-11-19T15:26:45.685Z,4.10
2017-11-19T15:29:14.538Z,4.10
2017-11-19T15:31:42.833Z,4.10
2017-11-19T15:34:11.009Z,4.00
2017-11-19T15:36:39.185Z,4.00
2017-11-19T15:39:07.270Z,4.10
2017-11-19T15:41:35.401Z,4.10
2017-11-19T15:44:03.476Z,4.00
2017-11-19T15:46:31.556Z,4.10
2017-11-19T15:48:59.639Z,4.00
2017-11-19T15:51:27.713Z,4.00
2017-11-19T15:53:56.580Z,4.00
2017-11-19T15:56:24.648Z,4.00
2017-11-19T15:58:52.780Z,4.00
2017-11-19T16:01:20.840Z,4.00
2017-11-19T16:03:49.756Z,4.00
2017-11-19T16:06:17.832Z,4.00
2017-11-19T16:08:45.917Z,4.00
2017-11-19T16:11:14.001Z,4.00
2017-11-19T16:13:42.092Z,4.00
2017-11-19T16:16:10.153Z,4.10
2017-11-19T16:18:38.233Z,4.00
2017-11-19T16:21:07.074Z,4.00
2017-11-19T16:23:35.155Z,4.00
2017-11-19T16:26:03.224Z,4.00
2017-11-19T16:28:31.325Z,4.00
2017-11-19T16:30:59.398Z,4.00
2017-11-19T16:33:27.836Z,4.00
2017-11-19T16:35:56.310Z,4.10
2017-11-19T16:38:24.750Z,4.00
2017-11-19T16:40:53.632Z,3.90
2017-11-19T16:43:22.028Z,3.90
2017-11-19T16:45:50.153Z,4.00
2017-11-19T16:48:18.230Z,3.90
2017-11-19T16:50:46.593Z,3.90
2017-11-19T16:53:15.644Z,3.90
2017-11-19T16:55:43.770Z,3.90
2017-11-19T16:58:11.859Z,3.80
2017-11-19T17:00:40.377Z,3.90
2017-11-19T17:03:08.425Z,3.90
2017-11-19T17:05:36.541Z,4.00
2017-11-19T17:08:04.613Z,3.90
2017-11-19T17:10:32.706Z,3.90
2017-11-19T17:13:00.779Z,3.90
2017-11-19T17:15:28.846Z,3.90
2017-11-19T17:17:56.929Z,3.90
2017-11-19T17:20:25.001Z,3.90
2017-11-19T17:22:53.076Z,4.00
2017-11-19T17:25:21.145Z,3.90
2017-11-19T17:27:49.331Z,3.90
2017-11-19T17:30:18.177Z,3.90
2017-11-19T17:32:46.304Z,4.00
2017-11-19T17:35:14.437Z,3.90
2017-11-19T17:37:42.513Z,3.90
2017-11-19T17:40:10.600Z,3.90
2017-11-19T17:42:38.684Z,3.90
2017-11-19T17:45:06.758Z,3.90
2017-11-19T17:47:35.613Z,3.90
2017-11-19T17:50:03.694Z,3.80
2017-11-19T17:52:31.777Z,3.90
2017-11-19T17:54:59.857Z,3.90
2017-11-19T17:57:28.709Z,3.90
2017-11-19T17:59:56.793Z,3.90
2017-11-19T18:02:24.868Z,3.80
2017-11-19T18:04:52.944Z,3.70
2017-11-19T18:07:21.036Z,3.80
2017-11-19T18:09:49.958Z,3.70
2017-11-19T18:12:18.026Z,3.70
2017-11-19T18:14:46.117Z,3.80
2017-11-19T18:17:14.194Z,3.80
2017-11-19T18:19:42.297Z,3.70
2017-11-19T18:22:10.366Z,3.70
2017-11-19T18:24:39.241Z,3.80
2017-11-19T18:27:07.318Z,3.70
2017-11-19T18:29:35.398Z,3.80
2017-11-19T18:32:04.256Z,3.70
2017-11-19T18:34:32.329Z,3.70
2017-11-19T18:37:00.401Z,3.80
2017-11-19T18:39:28.480Z,3.70
2017-11-19T18:41:56.577Z,3.70
2017-11-19T18:44:25.417Z,3.80
2017-11-19T18:46:53.508Z,3.80
2017-11-19T18:49:21.589Z,3.80
2017-11-19T18:51:49.674Z,3.90
2017-11-19T18:54:18.507Z,3.90
2017-11-19T18:56:46.616Z,3.90
2017-11-19T18:59:14.694Z,3.90
2017-11-19T19:01:43.540Z,3.80
2017-11-19T19:04:11.613Z,3.80
2017-11-19T19:06:39.712Z,3.80
2017-11-19T19:09:07.773Z,3.70
2017-11-19T19:11:35.864Z,3.70
2017-11-19T19:14:04.707Z,3.50
2017-11-19T19:16:32.793Z,3.50
2017-11-19T19:19:00.864Z,3.40
2017-11-19T19:21:28.949Z,3.40
2017-11-19T19:23:57.032Z,3.40
2017-11-19T19:26:25.877Z,3.30
2017-11-19T19:28:53.953Z,3.30
2017-11-19T19:31:22.036Z,3.30
2017-11-19T19:33:50.121Z,3.30
2017-11-19T19:36:18.365Z,3.30
2017-11-19T19:38:46.604Z,3.30
2017-11-19T19:41:14.813Z,3.30
2017-11-19T19:43:43.054Z,3.20
2017-11-19T19:46:11.876Z,3.00
2017-11-19T19:48:40.045Z,2.90
2017-11-19T19:51:08.948Z,3.00
2017-11-19T19:53:37.230Z,3.00
2017-11-19T19:56:05.389Z,2.90
2017-11-19T19:58:33.534Z,3.00
2017-11-19T20:01:01.671Z,2.90
2017-11-19T20:03:29.850Z,3.00
2017-11-19T20:05:58.776Z,2.90
2017-11-19T20:08:26.854Z,2.90
2017-11-19T20:10:55.289Z,2.90
2017-11-19T20:13:24.989Z,2.90
2017-11-19T20:15:53.252Z,2.90
2017-11-19T20:18:22.153Z,3.00
2017-11-19T20:20:50.997Z,2.90
2017-11-19T20:23:19.329Z,2.90
2017-11-19T20:25:48.202Z,2.90
2017-11-19T20:28:16.473Z,2.90
2017-11-19T20:30:44.726Z,2.90
2017-11-19T20:33:12.800Z,2.90
2017-11-19T20:35:40.916Z,2.80
2017-11-19T20:38:09.004Z,2.90
2017-11-19T20:40:37.134Z,2.90
2017-11-19T20:43:05.327Z,2.90
2017-11-19T20:45:33.597Z,3.00
2017-11-19T20:48:01.747Z,3.00
2017-11-19T20:50:30.788Z,3.00
2017-11-19T20:52:58.874Z,3.00
2017-11-19T20:55:27.155Z,3.00
2017-11-19T20:57:55.244Z,3.10
2017-11-19T21:00:23.534Z,3.00
2017-11-19T21:02:51.609Z,3.00
2017-11-19T21:05:20.470Z,3.00
2017-11-19T21:07:48.570Z,3.00
2017-11-19T21:10:16.695Z,2.90
2017-11-19T21:12:45.609Z,3.00
2017-11-19T21:15:13.818Z,3.00
2017-11-19T21:17:42.653Z,2.90
2017-11-19T21:20:12.072Z,2.80
2017-11-19T21:22:40.140Z,2.80
2017-11-19T21:25:08.423Z,2.80
2017-11-19T21:27:36.495Z,2.70
2017-11-19T21:30:04.582Z,2.60
2017-11-19T21:32:32.657Z,2.70
2017-11-19T21:35:01.547Z,2.60
2017-11-19T21:37:29.627Z,2.60
2017-11-19T21:39:57.709Z,2.70
2017-11-19T21:42:25.825Z,2.60
2017-11-19T21:44:53.899Z,2.60
2017-11-19T21:47:21.974Z,2.60
2017-11-19T21:49:50.085Z,2.60
2017-11-19T21:52:18.156Z,2.60
2017-11-19T21:54:46.232Z,2.70
2017-11-19T21:57:14.308Z,2.60
2017-11-19T21:59:42.386Z,2.70
2017-11-19T22:02:10.465Z,2.70
2017-11-19T22:04:38.533Z,2.70
2017-11-19T22:07:06.603Z,2.70
2017-11-19T22:09:34.701Z,2.70
2017-11-19T22:12:02.834Z,2.60
2017-11-19T22:14:30.918Z,2.70
2017-11-19T22:16:58.997Z,2.70
2017-11-19T22:19:27.081Z,2.70
2017-11-19T22:21:55.170Z,2.80
2017-11-19T22:24:24.027Z,2.80
2017-11-19T22:26:52.101Z,2.70
2017-11-19T22:29:20.182Z,2.90
2017-11-19T22:31:48.263Z,2.80
2017-11-19T22:34:17.118Z,2.70
2017-11-19T22:36:45.215Z,2.70
2017-11-19T22:39:13.298Z,2.60
2017-11-19T22:41:42.272Z,2.70
2017-11-19T22:44:10.352Z,2.70
2017-11-19T22:46:38.431Z,2.80
2017-11-19T22:49:07.282Z,2.90
2017-11-19T22:51:35.362Z,2.90
2017-11-19T22:54:03.431Z,2.90
2017-11-19T22:56:31.512Z,2.90
2017-11-19T22:58:59.599Z,2.90
2017-11-19T23:01:28.463Z,3.00
2017-11-19T23:03:56.536Z,3.00
2017-11-19T23:06:24.628Z,3.00
2017-11-19T23:08:53.475Z,3.10
2017-11-19T23:11:21.556Z,3.10
2017-11-19T23:13:49.647Z,3.10
2017-11-19T23:16:17.798Z,3.00
2017-11-19T23:18:45.997Z,3.00
2017-11-19T23:21:14.849Z,3.00
2017-11-19T23:23:42.937Z,3.00
2017-11-19T23:26:11.024Z,3.00
2017-11-19T23:28:39.103Z,3.00
2017-11-19T23:31:07.975Z,3.00
2017-11-19T23:33:36.031Z,2.90
2017-11-19T23:36:04.116Z,2.90
2017-11-19T23:38:32.199Z,2.90
2017-11-19T23:41:01.057Z,2.80
2017-11-19T23:43:29.135Z,2.80
2017-11-19T23:45:57.217Z,2.80
2017-11-19T23:48:25.304Z,2.80
2017-11-19T23:50:54.153Z,2.70
2017-11-19T23:53:22.239Z,2.70
2017-11-19T23:55:50.329Z,2.70
2017-11-19T23:58:19.180Z,2.60
